Time;durP1;ratioP1;P1;durP2;ratioP2;P2;SDS_P1;SDS_P2;PMS_P1;PMS_P2;Temp;Humidity;BMP_temperature;BMP_pressure;BME280_temperature;BME280_humidity;BME280_pressure;Samples;Min_cycle;Max_cycle;Signal;HPM_P1;HPM_P2
2023/02/13 00:02:19;;;;;;;21.65;8.00;;;;;;;;;;4941003;28;20057;-80
2023/02/13 00:04:53;;;;;;;19.73;7.50;;;;;;;;;;4960091;28;20216;-72
2023/02/13 00:12:46;;;;;;;18.98;7.50;;;;;;;;;;5067723;27;20454;-82
2023/02/13 00:15:16;;;;;;;19.65;8.02;;;;;;;;;;5012434;28;20058;-85
2023/02/13 00:17:43;;;;;;;19.83;7.70;;;;;;;;;;5025764;28;20048;-72
2023/02/13 00:20:10;;;;;;;21.73;6.70;;;;;;;;;;5032269;28;20056;-75
2023/02/13 00:22:37;;;;;;;19.63;7.88;;;;;;;;;;5037874;28;20099;-72
2023/02/13 00:25:05;;;;;;;22.42;8.27;;;;;;;;;;4990691;28;20063;-76
2023/02/13 00:27:40;;;;;;;23.63;9.27;;;;;;;;;;4956260;28;20053;-80
2023/02/13 00:30:15;;;;;;;21.52;8.40;;;;;;;;;;4999575;28;20053;-78
2023/02/13 00:32:41;;;;;;;20.23;8.45;;;;;;;;;;5026018;28;20056;-71
2023/02/13 00:35:08;;;;;;;18.80;7.47;;;;;;;;;;5011287;28;20138;-72
2023/02/13 00:37:35;;;;;;;21.38;7.82;;;;;;;;;;4947803;28;20042;-83
2023/02/13 00:40:02;;;;;;;18.83;8.00;;;;;;;;;;5003188;28;20146;-81
2023/02/13 00:42:30;;;;;;;20.77;8.55;;;;;;;;;;4979602;28;20059;-72
2023/02/13 00:45:17;;;;;;;21.23;8.10;;;;;;;;;;4979345;28;20057;-73
2023/02/13 00:47:48;;;;;;;21.48;7.40;;;;;;;;;;4971346;28;20232;-77
2023/02/13 00:50:15;;;;;;;;;;;;;;;;;;4977636;28;20102;-83
2023/02/13 01:03:03;;;;;;;21.33;8.90;;;;;;;;;;5048801;27;20498;-78
2023/02/13 01:05:30;;;;;;;21.70;8.82;;;;;;;;;;5024019;28;20104;-79
2023/02/13 01:07:57;;;;;;;20.08;7.88;;;;;;;;;;4969109;28;20115;-80
2023/02/13 01:10:29;;;;;;;20.92;8.45;;;;;;;;;;4998155;28;20147;-81
2023/02/13 01:12:59;;;;;;;23.60;8.38;;;;;;;;;;5004144;28;20055;-80
2023/02/13 01:15:28;;;;;;;20.73;8.35;;;;;;;;;;4996157;28;20052;-76
2023/02/13 01:17:57;;;;;;;24.17;9.60;;;;;;;;;;5010193;28;20056;-75
2023/02/13 01:20:26;;;;;;;20.40;7.60;;;;;;;;;;5001924;28;20110;-75
2023/02/13 01:22:55;;;;;;;21.92;8.52;;;;;;;;;;5015646;28;20061;-73
2023/02/13 01:25:33;;;;;;;24.35;9.10;;;;;;;;;;5017259;28;20050;-71
2023/02/13 01:28:07;;;;;;;19.67;8.43;;;;;;;;;;4966327;28;20052;-80
2023/02/13 01:30:37;;;;;;;22.88;8.35;;;;;;;;;;5009510;28;20125;-77
2023/02/13 01:33:06;;;;;;;24.02;9.43;;;;;;;;;;5018005;28;20052;-67
2023/02/13 01:35:41;;;;;;;20.38;7.88;;;;;;;;;;5015795;28;20060;-81
2023/02/13 01:38:08;;;;;;;23.58;8.38;;;;;;;;;;4974062;28;20068;-70
2023/02/13 01:40:44;;;;;;;27.80;9.00;;;;;;;;;;5008313;28;20051;-77
2023/02/13 01:43:13;;;;;;;23.10;9.45;;;;;;;;;;5010050;28;20351;-77
2023/02/13 01:45:43;;;;;;;22.17;8.40;;;;;;;;;;4974239;28;20455;-78
2023/02/13 01:48:17;;;;;;;21.35;8.73;;;;;;;;;;4949324;28;20054;-71
2023/02/13 01:50:48;;;;;;;22.27;7.53;;;;;;;;;;4968711;28;20054;-70
2023/02/13 01:53:20;;;;;;;18.95;8.18;;;;;;;;;;4942471;28;20101;-76
2023/02/13 01:55:58;;;;;;;20.67;8.40;;;;;;;;;;4936341;28;20046;-77
2023/02/13 02:03:52;;;;;;;23.13;8.98;;;;;;;;;;5064215;27;20458;-77
2023/02/13 02:06:25;;;;;;;21.05;8.00;;;;;;;;;;4966166;28;20055;-78
2023/02/13 02:12:08;;;;;;;22.45;8.50;;;;;;;;;;5006173;27;20494;-80
2023/02/13 02:20:30;;;;;;;20.08;7.65;;;;;;;;;;5068485;27;20132;-70
2023/02/13 02:23:13;;;;;;;22.25;8.65;;;;;;;;;;4984421;28;20148;-70
2023/02/13 02:25:47;;;;;;;24.38;8.25;;;;;;;;;;5020325;28;20052;-72
2023/02/13 02:28:26;;;;;;;26.77;8.77;;;;;;;;;;4971935;28;20067;-79
2023/02/13 02:31:07;;;;;;;22.63;8.35;;;;;;;;;;4978341;28;20100;-69
2023/02/13 02:34:23;;;;;;;23.05;8.13;;;;;;;;;;4963668;28;20114;-74
2023/02/13 02:39:46;;;;;;;23.52;8.23;;;;;;;;;;5001882;27;20413;-75
2023/02/13 02:42:27;;;;;;;23.17;8.52;;;;;;;;;;4886748;28;20122;-79
2023/02/13 02:45:02;;;;;;;23.27;8.05;;;;;;;;;;4938903;28;20073;-76
2023/02/13 02:55:47;;;;;;;20.33;8.25;;;;;;;;;;4988203;27;20517;-72
2023/02/13 03:06:39;;;;;;;26.00;8.80;;;;;;;;;;4931680;28;20050;-79
2023/02/13 03:14:40;;;;;;;20.33;8.57;;;;;;;;;;4932648;28;20127;-78
2023/02/13 03:22:52;;;;;;;23.25;8.63;;;;;;;;;;4921091;28;20119;-75
2023/02/13 03:30:44;;;;;;;18.00;6.95;;;;;;;;;;5077840;27;20487;-69
2023/02/13 03:33:34;;;;;;;21.92;8.57;;;;;;;;;;5018573;28;20045;-73
2023/02/13 03:38:56;;;;;;;20.95;8.85;;;;;;;;;;5004498;28;20084;-83
2023/02/13 03:41:30;;;;;;;22.30;8.52;;;;;;;;;;4986211;28;20058;-75
2023/02/13 03:44:11;;;;;;;26.33;8.43;;;;;;;;;;4920995;28;20059;-76
2023/02/13 03:46:40;;;;;;;22.83;8.20;;;;;;;;;;4972654;28;20081;-78
2023/02/13 03:52:01;;;;;;;19.52;8.70;;;;;;;;;;4957952;28;20067;-74
2023/02/13 04:00:05;;;;;;;21.95;8.48;;;;;;;;;;4997333;28;20058;-74
2023/02/13 04:02:41;;;;;;;21.70;8.57;;;;;;;;;;5026609;28;20075;-83
2023/02/13 04:05:10;;;;;;;23.08;8.23;;;;;;;;;;4988375;28;20057;-73
2023/02/13 04:07:37;;;;;;;23.02;8.65;;;;;;;;;;4951732;28;20053;-73
2023/02/13 04:10:13;;;;;;;20.45;7.72;;;;;;;;;;4966755;28;20061;-73
2023/02/13 04:12:46;;;;;;;23.33;8.05;;;;;;;;;;4978192;28;20064;-78
2023/02/13 04:15:17;;;;;;;23.15;8.07;;;;;;;;;;4958769;28;20143;-77
2023/02/13 04:23:21;;;;;;;20.70;7.93;;;;;;;;;;5035352;28;20491;-74
2023/02/13 04:28:17;;;;;;;22.88;7.95;;;;;;;;;;4891943;28;20051;-73
2023/02/13 04:30:50;;;;;;;20.83;8.18;;;;;;;;;;4918515;28;20059;-72
2023/02/13 04:38:56;;;;;;;21.20;7.47;;;;;;;;;;5003125;27;20446;-79
2023/02/13 04:41:29;;;;;;;21.98;8.13;;;;;;;;;;4883771;28;20055;-76
2023/02/13 04:43:58;;;;;;;21.35;8.32;;;;;;;;;;4933629;28;20124;-77
2023/02/13 04:51:59;;;;;;;22.00;8.40;;;;;;;;;;4951974;28;20455;-80
2023/02/13 04:54:26;;;;;;;25.95;8.30;;;;;;;;;;4868782;28;20047;-76
2023/02/13 04:56:56;;;;;;;23.08;9.23;;;;;;;;;;4900144;28;20134;-76
2023/02/13 04:59:23;;;;;;;26.02;9.15;;;;;;;;;;4902548;28;20043;-78
2023/02/13 05:01:51;;;;;;;27.73;8.95;;;;;;;;;;4917959;28;20234;-81
2023/02/13 05:04:18;;;;;;;22.80;8.93;;;;;;;;;;4912514;28;20283;-70
2023/02/13 05:06:46;;;;;;;19.77;8.32;;;;;;;;;;4915268;28;20054;-71
2023/02/13 05:14:11;;;;;;;22.38;8.27;;;;;;;;;;4786851;28;20086;-74
2023/02/13 05:19:03;;;;;;;22.83;9.32;;;;;;;;;;4841589;29;20055;-75
2023/02/13 05:24:25;;;;;;;24.30;9.27;;;;;;;;;;4844355;29;20053;-79
2023/02/13 05:26:52;;;;;;;20.75;8.73;;;;;;;;;;4868204;29;20284;-69
2023/02/13 05:34:45;;;;;;;21.23;8.98;;;;;;;;;;5039169;27;20946;-80
2023/02/13 05:37:25;;;;;;;;;;;;;;;;;;;;;
2023/02/13 05:40:04;;;;;;;24.95;8.75;;;;;;;;;;4881010;28;20083;-71
2023/02/13 05:42:38;;;;;;;20.08;8.50;;;;;;;;;;4938654;28;20689;-74
2023/02/13 05:45:09;;;;;;;22.65;9.05;;;;;;;;;;4966256;28;20099;-70
2023/02/13 05:47:42;;;;;;;20.98;8.27;;;;;;;;;;4951620;28;20062;-72
2023/02/13 05:50:13;;;;;;;24.33;9.35;;;;;;;;;;4938309;28;20054;-78
2023/02/13 05:52:39;;;;;;;26.80;9.45;;;;;;;;;;5009298;28;20069;-77
2023/02/13 05:55:11;;;;;;;27.75;10.18;;;;;;;;;;4944321;28;20127;-74
2023/02/13 05:57:46;;;;;;;24.55;9.23;;;;;;;;;;4927524;28;20043;-76
2023/02/13 06:00:14;;;;;;;21.98;9.00;;;;;;;;;;4896447;28;20073;-78
2023/02/13 06:02:45;;;;;;;21.98;9.20;;;;;;;;;;4945552;28;20207;-79
2023/02/13 06:10:49;;;;;;;26.75;9.38;;;;;;;;;;4989894;27;20476;-74
2023/02/13 06:13:21;;;;;;;23.85;9.43;;;;;;;;;;4916923;28;20128;-72
2023/02/13 06:16:09;;;;;;;28.58;9.63;;;;;;;;;;4940398;28;20142;-70
2023/02/13 06:18:37;;;;;;;22.95;9.40;;;;;;;;;;4931660;28;20138;-75
2023/02/13 06:21:04;;;;;;;;;;;;;;;;;;4922971;28;20362;-76
2023/02/13 06:23:34;;;;;;;26.45;9.80;;;;;;;;;;4927687;28;19925;-80
2023/02/13 06:33:31;;;;;;;27.08;9.88;;;;;;;;;;4913945;28;20061;-78
2023/02/13 06:36:13;;;;;;;28.33;10.20;;;;;;;;;;4924977;28;20057;-78
2023/02/13 06:43:59;;;;;;;26.50;10.85;;;;;;;;;;5006455;28;20490;-81
2023/02/13 06:51:24;;;;;;;27.30;10.93;;;;;;;;;;4862260;28;20059;-82
2023/02/13 06:53:53;;;;;;;28.55;10.88;;;;;;;;;;4895464;28;20330;-75
2023/02/13 06:56:48;;;;;;;26.10;10.23;;;;;;;;;;4847207;29;20119;-81
2023/02/13 06:59:17;;;;;;;30.23;10.85;;;;;;;;;;4866352;29;20052;-74
2023/02/13 07:07:27;;;;;;;27.83;10.68;;;;;;;;;;4965053;27;20448;-69
2023/02/13 07:10:10;;;;;;;28.73;10.65;;;;;;;;;;4869664;28;20419;-72
2023/02/13 07:12:41;;;;;;;28.02;10.57;;;;;;;;;;4880045;28;20057;-81
2023/02/13 07:15:08;;;;;;;;;;;;;;;;;;4908451;28;20173;-70
2023/02/13 07:23:08;;;;;;;27.63;10.07;;;;;;;;;;5005242;27;20483;-71
2023/02/13 07:25:44;;;;;;;28.02;10.35;;;;;;;;;;4901584;28;20055;-79
2023/02/13 07:28:13;;;;;;;26.70;10.18;;;;;;;;;;4946479;28;20058;-76
2023/02/13 07:30:40;;;;;;;26.83;9.95;;;;;;;;;;4892905;28;20152;-81
2023/02/13 07:33:17;;;;;;;25.77;10.43;;;;;;;;;;4871009;28;20139;-78
2023/02/13 07:35:46;;;;;;;26.67;9.82;;;;;;;;;;4861901;28;20075;-81
2023/02/13 07:38:16;;;;;;;26.83;11.10;;;;;;;;;;4909297;28;20062;-75
2023/02/13 07:43:12;;;;;;;26.20;10.80;;;;;;;;;;4889562;28;20121;-70
2023/02/13 07:45:42;;;;;;;27.00;11.02;;;;;;;;;;4903243;28;20066;-77
2023/02/13 07:48:11;;;;;;;25.90;11.25;;;;;;;;;;4924449;28;20057;-70
2023/02/13 07:53:35;;;;;;;27.17;10.43;;;;;;;;;;5054146;27;20471;-82
2023/02/13 08:01:43;;;;;;;28.08;9.90;;;;;;;;;;5051099;27;20423;-79
2023/02/13 08:04:20;;;;;;;24.88;9.93;;;;;;;;;;4945550;28;20304;-73
2023/02/13 08:06:48;;;;;;;29.50;10.02;;;;;;;;;;4954962;28;20058;-71
2023/02/13 08:12:03;;;;;;;27.93;10.30;;;;;;;;;;4908660;28;20061;-69
2023/02/13 08:14:32;;;;;;;28.15;11.32;;;;;;;;;;4952784;28;20314;-68
2023/02/13 08:17:00;;;;;;;27.48;10.70;;;;;;;;;;4933548;28;20282;-70
2023/02/13 08:19:28;;;;;;;24.20;10.77;;;;;;;;;;4951005;28;20262;-69
2023/02/13 08:21:55;;;;;;;26.33;10.90;;;;;;;;;;4941281;28;20054;-72
2023/02/13 08:24:21;;;;;;;25.83;10.88;;;;;;;;;;4933435;28;20093;-69
2023/02/13 08:26:48;;;;;;;30.02;12.63;;;;;;;;;;4984903;28;20118;-68
2023/02/13 08:29:17;;;;;;;23.88;10.35;;;;;;;;;;5040129;28;20052;-72
2023/02/13 08:31:44;;;;;;;28.63;11.38;;;;;;;;;;4973857;28;20057;-72
2023/02/13 08:34:11;;;;;;;28.15;11.55;;;;;;;;;;4974918;28;20063;-70
2023/02/13 08:36:42;;;;;;;31.90;11.13;;;;;;;;;;5018763;28;20061;-70
2023/02/13 08:39:12;;;;;;;24.02;10.82;;;;;;;;;;4956798;28;20090;-72
2023/02/13 08:41:39;;;;;;;27.58;10.48;;;;;;;;;;4953706;28;20065;-74
2023/02/13 08:44:20;;;;;;;25.77;11.00;;;;;;;;;;4994788;28;20056;-74
2023/02/13 08:52:06;;;;;;;28.15;11.80;;;;;;;;;;4990362;27;20487;-72
2023/02/13 08:54:34;;;;;;;29.45;11.75;;;;;;;;;;4918866;28;20077;-70
2023/02/13 08:57:05;;;;;;;29.38;11.13;;;;;;;;;;4914437;28;20058;-72
2023/02/13 08:59:39;;;;;;;27.40;10.65;;;;;;;;;;4913261;28;20051;-70
2023/02/13 09:02:16;;;;;;;28.45;10.38;;;;;;;;;;4875038;28;20150;-72
2023/02/13 09:10:07;;;;;;;27.30;10.80;;;;;;;;;;5009437;27;20487;-75
2023/02/13 09:12:43;;;;;;;33.95;12.00;;;;;;;;;;4983137;28;20077;-78
2023/02/13 09:15:15;;;;;;;27.13;10.93;;;;;;;;;;5010894;28;20064;-71
2023/02/13 09:17:44;;;;;;;26.50;11.23;;;;;;;;;;4990942;28;20136;-78
2023/02/13 09:20:17;;;;;;;24.92;10.63;;;;;;;;;;4970942;28;20053;-68
2023/02/13 09:22:54;;;;;;;28.25;11.07;;;;;;;;;;4908579;28;20050;-70
2023/02/13 09:31:20;;;;;;;29.00;11.82;;;;;;;;;;5000821;27;20475;-75
2023/02/13 09:33:48;;;;;;;28.42;11.55;;;;;;;;;;4979803;28;20057;-72
2023/02/13 09:36:23;;;;;;;25.92;10.93;;;;;;;;;;4987866;28;20342;-75
2023/02/13 09:38:53;;;;;;;28.58;11.73;;;;;;;;;;4995354;28;20151;-76
2023/02/13 09:41:26;;;;;;;27.40;11.43;;;;;;;;;;4985878;28;20320;-72
2023/02/13 09:43:58;;;;;;;29.08;12.18;;;;;;;;;;4983438;28;20056;-74
2023/02/13 09:46:34;;;;;;;28.35;11.63;;;;;;;;;;4976213;28;20099;-74
2023/02/13 09:49:05;;;;;;;33.47;11.70;;;;;;;;;;4906054;28;20091;-70
2023/02/13 09:51:35;;;;;;;27.13;11.55;;;;;;;;;;4903924;28;20064;-74
2023/02/13 09:54:03;;;;;;;27.10;11.15;;;;;;;;;;4920526;28;20058;-74
2023/02/13 10:01:26;;;;;;;27.38;11.13;;;;;;;;;;4921630;28;20145;-70
2023/02/13 10:04:12;;;;;;;29.67;11.85;;;;;;;;;;4933040;28;20053;-73
2023/02/13 10:06:49;;;;;;;28.48;11.55;;;;;;;;;;4977208;28;20053;-75
2023/02/13 10:14:38;;;;;;;29.00;11.70;;;;;;;;;;5005187;28;20459;-71
2023/02/13 10:17:07;;;;;;;26.60;10.35;;;;;;;;;;4916587;28;20048;-72
2023/02/13 10:19:37;;;;;;;25.85;10.63;;;;;;;;;;4903569;28;20043;-72
2023/02/13 10:24:36;;;;;;;23.73;10.95;;;;;;;;;;4897981;29;20051;-72
2023/02/13 10:27:09;;;;;;;24.80;10.60;;;;;;;;;;4872922;28;20052;-71
2023/02/13 10:32:27;;;;;;;29.10;10.90;;;;;;;;;;4899180;28;20180;-76
2023/02/13 10:34:55;;;;;;;26.23;10.48;;;;;;;;;;4927430;28;20074;-71
2023/02/13 10:37:24;;;;;;;29.40;11.10;;;;;;;;;;4927767;28;20079;-73
2023/02/13 10:39:53;;;;;;;28.00;10.40;;;;;;;;;;4907570;28;20062;-72
2023/02/13 10:50:21;;;;;;;27.42;11.20;;;;;;;;;;5012630;27;20375;-75
2023/02/13 10:58:32;;;;;;;27.10;10.45;;;;;;;;;;4862390;28;20390;-74
2023/02/13 11:01:02;;;;;;;25.90;11.55;;;;;;;;;;4926758;28;20087;-72
2023/02/13 11:03:30;;;;;;;27.23;11.50;;;;;;;;;;4903214;28;20069;-72
2023/02/13 11:08:31;;;;;;;26.92;11.52;;;;;;;;;;4925142;28;20109;-68
2023/02/13 11:11:02;;;;;;;28.10;11.48;;;;;;;;;;4943512;28;20128;-73
2023/02/13 11:13:34;;;;;;;28.88;11.43;;;;;;;;;;4935497;28;20061;-75
2023/02/13 11:21:20;;;;;;;27.58;10.82;;;;;;;;;;5062289;27;20442;-76
2023/02/13 11:23:52;;;;;;;26.52;11.77;;;;;;;;;;5020168;28;20045;-75
2023/02/13 11:26:22;;;;;;;26.52;11.27;;;;;;;;;;5006528;28;20060;-75
2023/02/13 11:28:52;;;;;;;25.42;10.38;;;;;;;;;;4969075;28;20059;-75
2023/02/13 11:31:24;;;;;;;25.00;11.18;;;;;;;;;;4912001;28;20066;-70
2023/02/13 11:34:25;;;;;;;;;;;;;;;;;;;;;
2023/02/13 11:37:01;;;;;;;22.20;9.80;;;;;;;;;;4959428;28;20133;-72
2023/02/13 11:39:50;;;;;;;23.38;10.25;;;;;;;;;;4885692;28;20099;-76
2023/02/13 11:47:47;;;;;;;27.35;10.88;;;;;;;;;;4967740;27;20458;-70
2023/02/13 11:55:31;;;;;;;28.27;11.00;;;;;;;;;;5055994;27;20451;-70
2023/02/13 11:58:21;;;;;;;25.70;10.38;;;;;;;;;;4955829;28;20053;-72
2023/02/13 12:00:48;;;;;;;23.23;10.50;;;;;;;;;;4988648;28;20069;-68
2023/02/13 12:03:28;;;;;;;25.00;10.70;;;;;;;;;;4948444;28;20120;-73
2023/02/13 12:06:01;;;;;;;25.80;10.55;;;;;;;;;;4970120;28;20058;-72
2023/02/13 12:08:30;;;;;;;26.30;11.00;;;;;;;;;;4966134;28;20042;-69
2023/02/13 12:11:08;;;;;;;24.10;10.43;;;;;;;;;;4988444;28;20639;-72
2023/02/13 12:13:35;;;;;;;;;;;;;;;;;;4964892;28;20065;-74
2023/02/13 12:16:07;;;;;;;26.00;10.93;;;;;;;;;;4957546;28;20182;-70
2023/02/13 12:23:53;;;;;;;26.52;11.63;;;;;;;;;;4932150;27;20522;-73
2023/02/13 12:26:23;;;;;;;26.05;11.00;;;;;;;;;;4875281;28;20121;-72
2023/02/13 12:34:25;;;;;;;23.52;10.88;;;;;;;;;;5025938;27;20449;-78
2023/02/13 12:37:03;;;;;;;26.77;11.45;;;;;;;;;;5025886;28;20691;-71
2023/02/13 12:39:35;;;;;;;24.42;11.32;;;;;;;;;;4978179;28;20045;-72
2023/02/13 12:42:15;;;;;;;27.10;10.60;;;;;;;;;;5012747;28;20057;-73
2023/02/13 12:44:52;;;;;;;25.38;11.10;;;;;;;;;;4987241;28;20061;-73
2023/02/13 12:47:23;;;;;;;23.30;11.10;;;;;;;;;;5009943;28;20044;-76
2023/02/13 12:55:21;;;;;;;24.33;11.02;;;;;;;;;;4970874;27;20464;-71
2023/02/13 12:57:55;;;;;;;25.13;11.77;;;;;;;;;;4930627;28;20046;-74
2023/02/13 13:00:31;;;;;;;23.42;11.18;;;;;;;;;;4960628;28;20121;-72
2023/02/13 13:03:12;;;;;;;27.10;11.13;;;;;;;;;;4985437;28;20123;-75
2023/02/13 13:05:51;;;;;;;22.27;10.73;;;;;;;;;;4940592;28;20056;-76
2023/02/13 13:08:24;;;;;;;25.70;11.65;;;;;;;;;;4988160;28;20120;-72
2023/02/13 13:10:58;;;;;;;23.52;10.82;;;;;;;;;;4970106;28;20150;-73
2023/02/13 13:13:39;;;;;;;20.08;9.90;;;;;;;;;;4994812;28;20077;-73
2023/02/13 13:16:14;;;;;;;24.20;11.10;;;;;;;;;;4980501;28;20079;-75
2023/02/13 13:18:55;;;;;;;24.90;10.77;;;;;;;;;;5013841;28;20048;-73
2023/02/13 13:29:21;;;;;;;22.52;10.23;;;;;;;;;;4966724;27;20481;-77
2023/02/13 13:32:05;;;;;;;21.85;9.88;;;;;;;;;;4839842;29;20045;-68
2023/02/13 13:41:59;;;;;;;24.65;10.25;;;;;;;;;;4881037;28;20059;-78
2023/02/13 13:44:38;;;;;;;19.85;10.63;;;;;;;;;;4863492;28;20383;-74
2023/02/13 13:47:11;;;;;;;21.30;9.38;;;;;;;;;;4874327;28;20063;-74
2023/02/13 13:54:52;;;;;;;24.92;10.43;;;;;;;;;;5000922;27;20533;-76
2023/02/13 13:57:23;;;;;;;;;;;;;;;;;;4982398;28;20562;-74
2023/02/13 14:08:11;;;;;;;23.30;10.60;;;;;;;;;;4977814;28;20476;-73
2023/02/13 14:11:04;;;;;;;21.60;10.38;;;;;;;;;;4894482;28;20051;-72
2023/02/13 14:13:32;;;;;;;20.20;10.07;;;;;;;;;;4921945;28;20058;-72
2023/02/13 14:16:08;;;;;;;20.33;10.18;;;;;;;;;;4910913;28;20058;-73
2023/02/13 14:18:37;;;;;;;24.25;10.52;;;;;;;;;;4889328;28;20074;-77
2023/02/13 14:21:24;;;;;;;21.67;9.95;;;;;;;;;;4869533;29;20060;-76
2023/02/13 14:27:44;;;;;;;21.55;10.10;;;;;;;;;;5023852;27;20524;-75
2023/02/13 14:30:28;;;;;;;25.00;10.68;;;;;;;;;;4929919;28;20059;-77
2023/02/13 14:32:55;;;;;;;22.90;10.23;;;;;;;;;;4908512;28;20074;-75
2023/02/13 14:38:22;;;;;;;25.10;10.32;;;;;;;;;;5004549;27;1506377;-76
2023/02/13 14:41:07;;;;;;;19.48;9.45;;;;;;;;;;4891456;28;20055;-77
2023/02/13 14:43:41;;;;;;;20.25;9.73;;;;;;;;;;4891191;28;20145;-76
2023/02/13 14:46:19;;;;;;;25.42;10.38;;;;;;;;;;4936716;28;20053;-70
2023/02/13 14:48:53;;;;;;;20.33;9.98;;;;;;;;;;4949804;28;20069;-74
2023/02/13 14:51:27;;;;;;;23.45;10.35;;;;;;;;;;4874521;29;20063;-77
2023/02/13 14:59:16;;;;;;;22.10;10.75;;;;;;;;;;5053608;27;20425;-75
2023/02/13 15:09:35;;;;;;;23.08;10.10;;;;;;;;;;4999541;28;20450;-72
2023/02/13 15:12:09;;;;;;;24.90;10.25;;;;;;;;;;4946266;28;20058;-80
2023/02/13 15:14:38;;;;;;;23.77;10.52;;;;;;;;;;4946126;28;20046;-77
2023/02/13 15:17:13;;;;;;;20.70;10.27;;;;;;;;;;4927019;28;20058;-74
2023/02/13 15:25:02;;;;;;;19.45;9.77;;;;;;;;;;4948950;27;20625;-73
2023/02/13 15:27:32;;;;;;;19.92;9.48;;;;;;;;;;4901808;29;20062;-76
2023/02/13 15:35:26;;;;;;;19.55;9.27;;;;;;;;;;5032150;27;20487;-75
2023/02/13 15:38:01;;;;;;;22.38;9.95;;;;;;;;;;4898066;28;20059;-77
2023/02/13 15:45:48;;;;;;;20.85;9.52;;;;;;;;;;4987509;27;20473;-72
2023/02/13 15:48:14;;;;;;;;;;;;;;;;;;4969544;28;20586;-72
2023/02/13 15:50:52;;;;;;;21.30;9.02;;;;;;;;;;4963316;28;19926;-73
2023/02/13 15:59:33;;;;;;;20.48;9.77;;;;;;;;;;5051200;27;20114;-76
2023/02/13 16:20:29;;;;;;;;;;;;;;;;;;;;;
2023/02/13 16:33:27;;;;;;;18.08;8.90;;;;;;;;;;4965811;28;20153;-73
2023/02/13 16:36:02;;;;;;;18.75;9.00;;;;;;;;;;4914649;28;20122;-72
2023/02/13 16:38:44;;;;;;;20.02;9.77;;;;;;;;;;4898224;28;20058;-75
2023/02/13 16:41:27;;;;;;;20.85;9.68;;;;;;;;;;4861944;29;20056;-75
2023/02/13 16:44:15;;;;;;;22.85;9.38;;;;;;;;;;4830374;29;20056;-73
2023/02/13 16:52:17;;;;;;;16.88;9.25;;;;;;;;;;4963354;27;20511;-73
2023/02/13 16:54:53;;;;;;;18.55;8.63;;;;;;;;;;4877637;29;20071;-74
2023/02/13 17:05:12;;;;;;;20.52;9.48;;;;;;;;;;5090592;27;20403;-76
2023/02/13 17:07:39;;;;;;;22.38;9.50;;;;;;;;;;4961746;28;20052;-72
2023/02/13 17:10:15;;;;;;;17.70;8.70;;;;;;;;;;4974581;28;20230;-72
2023/02/13 17:15:44;;;;;;;17.70;8.55;;;;;;;;;;5065472;27;20605;-78
2023/02/13 17:18:37;;;;;;;19.42;8.43;;;;;;;;;;4958994;28;20062;-75
2023/02/13 17:21:08;;;;;;;17.77;8.60;;;;;;;;;;4959131;28;20050;-71
2023/02/13 17:26:50;;;;;;;22.00;9.48;;;;;;;;;;5043098;27;20498;-75
2023/02/13 17:37:25;;;;;;;17.63;8.88;;;;;;;;;;4870346;28;20051;-76
2023/02/13 17:39:54;;;;;;;22.08;9.45;;;;;;;;;;4854443;29;20087;-72
2023/02/13 17:42:23;;;;;;;19.90;8.68;;;;;;;;;;4897435;28;20057;-73
2023/02/13 17:44:50;;;;;;;;;;;;;;;;;;4955626;28;20065;-73
2023/02/13 17:47:34;;;;;;;19.58;8.27;;;;;;;;;;4948703;28;19926;-73
2023/02/13 17:50:15;;;;;;;19.13;8.63;;;;;;;;;;4931977;28;20169;-76
2023/02/13 17:58:14;;;;;;;22.17;8.93;;;;;;;;;;5012984;27;20504;-72
2023/02/13 18:00:47;;;;;;;18.70;8.90;;;;;;;;;;4913365;28;20060;-77
2023/02/13 18:03:15;;;;;;;20.67;9.02;;;;;;;;;;4903069;28;20065;-75
2023/02/13 18:06:07;;;;;;;19.80;8.50;;;;;;;;;;4941685;28;20108;-78
2023/02/13 18:08:34;;;;;;;21.45;9.30;;;;;;;;;;4883291;28;20109;-71
2023/02/13 18:11:02;;;;;;;18.83;8.82;;;;;;;;;;4925881;28;20088;-74
2023/02/13 18:18:54;;;;;;;23.08;9.43;;;;;;;;;;4928053;28;20535;-75
2023/02/13 18:43:01;;;;;;;18.40;8.23;;;;;;;;;;4934282;28;20058;-73
2023/02/13 18:45:28;;;;;;;21.05;9.90;;;;;;;;;;4900968;28;20089;-68
2023/02/13 18:47:54;;;;;;;21.20;9.73;;;;;;;;;;4974814;28;20126;-70
2023/02/13 18:58:23;;;;;;;25.67;10.50;;;;;;;;;;5024417;27;20159;-77
2023/02/13 19:06:20;;;;;;;22.90;10.18;;;;;;;;;;5017404;27;20424;-71
2023/02/13 19:08:52;;;;;;;22.95;11.05;;;;;;;;;;4916804;28;20048;-78
2023/02/13 19:11:22;;;;;;;23.25;11.02;;;;;;;;;;4913881;28;20066;-72
2023/02/13 19:13:49;;;;;;;25.23;11.18;;;;;;;;;;4951102;28;20077;-75
2023/02/13 19:16:22;;;;;;;22.00;9.95;;;;;;;;;;4894453;28;20150;-77
2023/02/13 19:19:01;;;;;;;22.73;10.60;;;;;;;;;;4895876;28;20047;-74
2023/02/13 19:21:31;;;;;;;24.65;11.35;;;;;;;;;;4931606;28;20052;-73
2023/02/13 20:52:26;;;;;;;25.57;9.23;;;;;;;;;;6104488;22;6467018;-72
2023/02/13 21:29:59;;;;;;;23.40;10.87;;;;;;;;;;6168295;22;1461388;-76
2023/02/13 21:33:16;;;;;;;24.30;11.05;;;;;;;;;;6013601;23;20033;-71
2023/02/13 22:32:22;;;;;;;18.50;8.03;;;;;;;;;;6035865;22;4629767;-76
2023/02/13 22:35:20;;;;;;;20.42;9.32;;;;;;;;;;6033126;23;20049;-83
2023/02/13 23:09:57;;;;;;;24.83;9.48;;;;;;;;;;5230688;23;21329893;-72
2023/02/13 23:36:15;;;;;;;19.05;8.25;;;;;;;;;;6005053;23;20050;-76
